Time;durP1;ratioP1;P1;durP2;ratioP2;P2;SDS_P1;SDS_P2;PMS_P1;PMS_P2;Temp;Humidity;BMP_temperature;BMP_pressure;BME280_temperature;BME280_humidity;BME280_pressure;Samples;Min_cycle;Max_cycle;Signal;HPM_P1;HPM_P2
2020/12/30 00:02:12;;;;;;;1.23;0.90;;;20.80;47.20;;;;;;5110796;28;20047;-47
2020/12/30 00:04:38;;;;;;;1.48;1.00;;;20.80;47.20;;;;;;5112697;28;20028;-49
2020/12/30 00:07:04;;;;;;;2.33;0.98;;;20.80;47.20;;;;;;5112748;28;20469;-45
2020/12/30 00:09:29;;;;;;;2.65;0.73;;;20.80;47.10;;;;;;5111864;28;20034;-49
2020/12/30 00:11:55;;;;;;;3.25;0.95;;;20.80;47.10;;;;;;5112819;28;20027;-50
2020/12/30 00:14:20;;;;;;;1.70;1.02;;;20.80;47.10;;;;;;5111876;28;20369;-53
2020/12/30 00:16:46;;;;;;;1.50;0.93;;;20.80;47.10;;;;;;5112405;28;20132;-45
2020/12/30 00:19:12;;;;;;;1.05;0.80;;;20.80;47.10;;;;;;5111559;28;20027;-57
2020/12/30 00:21:38;;;;;;;1.10;0.70;;;20.80;47.10;;;;;;5110629;28;20118;-49
2020/12/30 00:24:03;;;;;;;1.38;0.80;;;20.80;47.00;;;;;;5112756;28;20051;-50
2020/12/30 00:26:29;;;;;;;1.70;0.90;;;20.80;47.00;;;;;;5111269;28;20308;-49
2020/12/30 00:28:55;;;;;;;1.83;0.90;;;20.80;47.00;;;;;;5112681;28;20036;-56
2020/12/30 00:31:20;;;;;;;1.33;0.73;;;20.80;47.00;;;;;;5111569;28;20028;-54
2020/12/30 00:33:46;;;;;;;1.42;1.05;;;20.80;47.00;;;;;;5112227;28;20028;-49
2020/12/30 00:36:12;;;;;;;1.23;0.80;;;20.80;46.90;;;;;;5111828;28;20038;-47
2020/12/30 00:38:37;;;;;;;2.10;0.90;;;20.80;46.90;;;;;;5111743;28;20046;-49
2020/12/30 00:41:03;;;;;;;1.17;0.82;;;20.80;46.90;;;;;;5112139;28;20035;-45
2020/12/30 00:43:29;;;;;;;2.15;1.00;;;20.80;46.90;;;;;;5110884;28;20028;-42
2020/12/30 00:45:54;;;;;;;1.27;0.73;;;20.80;46.90;;;;;;5116721;27;20028;-45
2020/12/30 00:48:20;;;;;;;1.92;0.80;;;20.80;46.90;;;;;;5111763;28;20023;-48
2020/12/30 00:50:46;;;;;;;0.80;0.70;;;20.70;46.80;;;;;;5112208;28;20028;-41
2020/12/30 00:53:11;;;;;;;0.90;0.60;;;20.80;46.90;;;;;;5111036;28;20024;-49
2020/12/30 00:55:37;;;;;;;1.23;0.73;;;20.80;46.80;;;;;;5110287;28;20063;-48
2020/12/30 00:58:02;;;;;;;2.38;0.93;;;20.70;46.80;;;;;;5111619;28;20035;-60
2020/12/30 01:00:28;;;;;;;1.90;0.82;;;20.70;46.80;;;;;;5116761;27;20047;-50
2020/12/30 01:02:54;;;;;;;2.10;0.90;;;20.80;46.80;;;;;;5112635;28;20035;-49
2020/12/30 01:05:20;;;;;;;1.42;0.70;;;20.80;46.80;;;;;;5110713;28;20465;-49
2020/12/30 01:07:46;;;;;;;1.25;0.93;;;20.80;46.80;;;;;;5111340;28;20031;-50
2020/12/30 01:10:11;;;;;;;1.33;0.80;;;20.70;46.70;;;;;;5111202;28;20050;-58
2020/12/30 01:12:38;;;;;;;1.85;0.88;;;20.70;46.70;;;;;;5111674;28;20038;-53
2020/12/30 01:15:05;;;;;;;0.82;0.57;;;20.70;46.70;;;;;;5111839;28;20402;-48
2020/12/30 01:17:31;;;;;;;1.25;0.80;;;20.80;46.70;;;;;;5110664;28;20456;-46
2020/12/30 01:19:56;;;;;;;1.90;0.93;;;20.70;46.60;;;;;;5111540;28;20046;-49
2020/12/30 01:22:22;;;;;;;1.10;0.85;;;20.70;46.60;;;;;;5110878;28;20032;-54
2020/12/30 01:24:47;;;;;;;3.45;1.10;;;20.80;46.60;;;;;;5111324;28;20054;-49
2020/12/30 01:27:13;;;;;;;1.13;0.70;;;20.70;46.60;;;;;;5109716;28;20160;-61
2020/12/30 01:29:39;;;;;;;1.25;0.80;;;20.70;46.60;;;;;;5108838;28;20110;-46
2020/12/30 01:32:04;;;;;;;1.50;1.00;;;20.80;46.60;;;;;;5112551;28;20045;-50
2020/12/30 01:34:30;;;;;;;1.20;0.90;;;20.80;46.60;;;;;;5114860;28;20043;-48
2020/12/30 01:36:56;;;;;;;1.33;0.70;;;20.80;46.60;;;;;;5115398;28;20026;-49
2020/12/30 01:39:21;;;;;;;1.90;0.82;;;20.80;46.60;;;;;;5114688;28;20035;-49
2020/12/30 01:41:48;;;;;;;1.00;0.60;;;20.80;46.60;;;;;;5116015;28;20042;-48
2020/12/30 01:44:13;;;;;;;1.00;0.60;;;20.80;46.50;;;;;;5114500;28;20034;-49
2020/12/30 01:46:47;;;;;;;0.75;0.65;;;20.80;46.50;;;;;;5115660;28;20027;-50
2020/12/30 01:49:21;;;;;;;2.00;0.90;;;20.80;46.50;;;;;;5113353;28;20028;-56
2020/12/30 01:51:50;;;;;;;1.08;0.70;;;20.80;47.10;;;;;;5116026;27;20031;-49
2020/12/30 01:54:17;;;;;;;1.38;0.70;;;20.80;46.40;;;;;;5114467;28;20024;-41
2020/12/30 01:56:43;;;;;;;0.95;0.70;;;20.80;46.50;;;;;;5115510;28;20035;-41
2020/12/30 01:59:12;;;;;;;0.88;0.65;;;20.80;46.40;;;;;;5113696;28;20028;-56
2020/12/30 02:01:44;;;;;;;0.70;0.55;;;20.80;46.40;;;;;;5114844;28;20055;-44
2020/12/30 02:04:11;;;;;;;1.55;0.80;;;20.70;46.30;;;;;;5113540;28;20027;-57
2020/12/30 02:06:37;;;;;;;1.02;0.60;;;20.80;46.40;;;;;;5115232;28;20028;-47
2020/12/30 02:09:04;;;;;;;0.90;0.73;;;20.80;46.40;;;;;;5114475;28;20019;-49
2020/12/30 02:11:31;;;;;;;0.90;0.70;;;20.80;46.30;;;;;;5114115;28;20558;-49
2020/12/30 02:14:13;;;;;;;1.20;0.60;;;20.80;46.30;;;;;;5114797;28;20051;-51
2020/12/30 02:16:53;;;;;;;1.65;0.85;;;20.80;46.30;;;;;;5115174;28;20031;-48
2020/12/30 02:19:19;;;;;;;0.98;0.60;;;20.80;46.20;;;;;;5113614;28;20382;-49
2020/12/30 02:21:45;;;;;;;1.10;0.80;;;20.80;46.20;;;;;;5115260;28;20345;-46
2020/12/30 02:24:17;;;;;;;0.60;0.60;;;20.80;46.20;;;;;;5113557;28;20026;-59
2020/12/30 02:26:43;;;;;;;1.40;0.73;;;20.80;46.10;;;;;;5114946;28;20080;-51
2020/12/30 02:29:09;;;;;;;1.27;0.60;;;20.80;46.10;;;;;;5113114;28;20024;-45
2020/12/30 02:31:34;;;;;;;1.05;0.80;;;20.80;46.10;;;;;;5114253;28;20028;-60
2020/12/30 02:34:00;;;;;;;1.27;0.60;;;20.80;46.10;;;;;;5114313;28;20098;-48
2020/12/30 02:36:26;;;;;;;1.00;0.52;;;20.80;46.00;;;;;;5113767;28;20015;-50
2020/12/30 02:38:53;;;;;;;0.80;0.68;;;20.80;46.00;;;;;;5112896;28;20056;-49
2020/12/30 02:41:19;;;;;;;1.13;0.73;;;20.80;46.00;;;;;;5113276;28;20031;-47
2020/12/30 02:43:48;;;;;;;0.60;0.50;;;20.80;46.00;;;;;;5113553;28;20038;-45
2020/12/30 02:46:14;;;;;;;0.93;0.60;;;20.80;45.90;;;;;;5113846;28;20030;-55
2020/12/30 02:48:40;;;;;;;0.90;0.60;;;20.80;45.90;;;;;;5114013;28;20400;-52
2020/12/30 02:51:06;;;;;;;0.85;0.60;;;20.80;45.90;;;;;;5114052;28;20035;-51
2020/12/30 02:53:31;;;;;;;1.30;0.70;;;20.80;45.90;;;;;;5113321;28;20016;-50
2020/12/30 02:55:57;;;;;;;1.52;0.77;;;20.80;46.00;;;;;;5113448;28;20024;-50
2020/12/30 02:58:23;;;;;;;2.15;0.63;;;20.90;46.00;;;;;;5112950;28;20023;-48
2020/12/30 03:00:48;;;;;;;1.20;0.60;;;20.80;45.90;;;;;;5112742;28;20062;-57
2020/12/30 03:03:14;;;;;;;0.73;0.60;;;20.90;46.00;;;;;;5111981;28;20068;-55
2020/12/30 03:05:40;;;;;;;0.80;0.57;;;20.80;45.90;;;;;;5113792;27;20027;-44
2020/12/30 03:08:05;;;;;;;0.80;0.50;;;20.80;45.90;;;;;;5113687;28;20377;-50
2020/12/30 03:10:31;;;;;;;0.70;0.60;;;20.90;45.90;;;;;;5112794;28;20039;-50
2020/12/30 03:12:56;;;;;;;0.90;0.60;;;20.80;45.90;;;;;;5113692;28;20097;-42
2020/12/30 03:15:22;;;;;;;1.15;0.82;;;20.90;45.90;;;;;;5113126;28;20030;-48
2020/12/30 03:17:48;;;;;;;0.68;0.50;;;20.80;45.80;;;;;;5112228;28;20032;-60
2020/12/30 03:20:13;;;;;;;1.33;0.60;;;20.90;45.90;;;;;;5113610;28;20073;-61
2020/12/30 03:22:39;;;;;;;1.30;0.60;;;20.80;45.80;;;;;;5113331;28;20105;-49
2020/12/30 03:25:05;;;;;;;0.65;0.50;;;20.90;45.80;;;;;;5113461;28;20027;-53
2020/12/30 03:27:30;;;;;;;0.50;0.50;;;20.90;45.80;;;;;;5112890;28;20062;-49
2020/12/30 03:29:56;;;;;;;0.85;0.55;;;20.80;45.80;;;;;;5111839;28;20720;-53
2020/12/30 03:32:22;;;;;;;0.98;0.55;;;20.90;45.80;;;;;;5112738;28;20373;-49
2020/12/30 03:34:47;;;;;;;0.88;0.60;;;20.90;45.70;;;;;;5113399;28;20110;-57
2020/12/30 03:37:13;;;;;;;1.10;0.68;;;20.90;45.80;;;;;;5112787;28;20027;-57
2020/12/30 03:39:38;;;;;;;0.50;0.50;;;20.80;45.70;;;;;;5113255;28;20365;-50
2020/12/30 03:42:06;;;;;;;0.85;0.55;;;20.90;45.70;;;;;;5113187;28;20034;-54
2020/12/30 03:44:32;;;;;;;0.95;0.50;;;20.90;46.30;;;;;;5112421;28;20019;-50
2020/12/30 03:46:59;;;;;;;1.23;0.68;;;20.90;45.70;;;;;;5113123;28;20115;-50
2020/12/30 03:49:24;;;;;;;0.80;0.57;;;20.80;45.70;;;;;;5111917;28;20039;-49
2020/12/30 03:51:50;;;;;;;1.05;0.50;;;20.90;45.70;;;;;;5113366;28;20019;-46
2020/12/30 03:54:15;;;;;;;0.70;0.60;;;20.80;45.60;;;;;;5112739;28;20423;-57
2020/12/30 03:56:41;;;;;;;1.02;0.50;;;20.90;45.70;;;;;;5112650;28;20472;-49
2020/12/30 03:59:07;;;;;;;1.33;0.70;;;20.90;45.60;;;;;;5111916;28;20456;-49
2020/12/30 04:01:32;;;;;;;0.70;0.50;;;20.90;45.60;;;;;;5110332;28;20051;-45
2020/12/30 04:03:58;;;;;;;0.73;0.60;;;20.90;45.60;;;;;;5122121;27;20034;-50
2020/12/30 04:06:24;;;;;;;0.60;0.40;;;20.80;45.50;;;;;;5124016;27;20028;-50
2020/12/30 04:08:49;;;;;;;0.88;0.50;;;20.90;45.60;;;;;;5113085;28;20058;-49
2020/12/30 04:11:15;;;;;;;0.75;0.70;;;20.90;45.50;;;;;;5112166;28;20100;-57
2020/12/30 04:13:40;;;;;;;1.13;0.50;;;20.90;45.50;;;;;;5112316;28;20122;-48
2020/12/30 04:16:06;;;;;;;0.32;0.30;;;20.90;45.50;;;;;;5112895;28;20065;-58
2020/12/30 04:18:32;;;;;;;1.40;0.60;;;20.90;45.50;;;;;;5111578;28;20072;-48
2020/12/30 04:20:57;;;;;;;0.93;0.50;;;20.90;45.40;;;;;;5112122;28;20039;-49
2020/12/30 04:23:23;;;;;;;0.57;0.40;;;20.90;45.40;;;;;;5111796;28;20428;-50
2020/12/30 04:25:48;;;;;;;0.80;0.40;;;20.90;45.50;;;;;;5112862;28;20175;-52
2020/12/30 04:28:15;;;;;;;1.00;0.50;;;20.90;45.40;;;;;;5110787;28;20027;-59
2020/12/30 04:30:41;;;;;;;0.68;0.50;;;20.90;45.40;;;;;;5112156;28;20103;-50
2020/12/30 04:33:09;;;;;;;0.60;0.52;;;20.90;45.50;;;;;;5112356;28;20115;-47
2020/12/30 04:35:34;;;;;;;0.85;0.47;;;20.90;45.50;;;;;;5111680;28;20605;-47
2020/12/30 04:38:00;;;;;;;0.77;0.50;;;20.90;45.50;;;;;;5112249;28;20031;-50
2020/12/30 04:40:26;;;;;;;0.50;0.40;;;20.90;45.40;;;;;;5111557;28;20409;-48
2020/12/30 04:42:54;;;;;;;1.75;0.40;;;20.90;45.30;;;;;;5112160;28;20405;-60
2020/12/30 04:45:20;;;;;;;0.45;0.40;;;20.90;45.30;;;;;;5111341;28;20030;-45
2020/12/30 04:47:48;;;;;;;1.20;0.60;;;20.90;45.30;;;;;;5112079;28;20373;-44
2020/12/30 04:50:14;;;;;;;0.73;0.45;;;20.90;45.30;;;;;;5112437;28;20031;-48
2020/12/30 04:52:41;;;;;;;1.08;0.55;;;20.90;45.20;;;;;;5111213;28;20031;-48
2020/12/30 04:55:07;;;;;;;0.98;0.60;;;20.90;45.30;;;;;;5111034;28;20114;-49
2020/12/30 04:57:58;;;;;;;0.65;0.40;;;20.90;45.20;;;;;;5110920;28;20574;-56
2020/12/30 05:00:25;;;;;;;1.45;0.60;;;20.90;45.20;;;;;;5110859;28;20082;-46
2020/12/30 05:02:52;;;;;;;1.02;0.50;;;20.90;45.20;;;;;;5111739;28;20510;-54
2020/12/30 05:05:20;;;;;;;0.47;0.35;;;20.90;45.20;;;;;;5107561;28;20027;-57
2020/12/30 05:07:46;;;;;;;0.65;0.50;;;20.90;45.20;;;;;;5111464;28;20176;-46
2020/12/30 05:10:15;;;;;;;1.42;0.60;;;20.90;45.20;;;;;;5111888;28;20031;-53
2020/12/30 05:12:41;;;;;;;1.48;0.70;;;20.90;45.10;;;;;;5109334;28;20042;-49
2020/12/30 05:15:07;;;;;;;0.90;0.55;;;20.90;45.10;;;;;;5111535;28;20024;-50
2020/12/30 05:17:35;;;;;;;1.35;0.68;;;20.90;45.10;;;;;;5110562;28;20414;-47
2020/12/30 05:20:07;;;;;;;1.42;1.15;;;20.90;45.10;;;;;;5111201;28;20503;-48
2020/12/30 05:22:32;;;;;;;0.47;0.30;;;20.90;45.10;;;;;;5110775;28;20035;-49
2020/12/30 05:25:05;;;;;;;0.77;0.43;;;20.90;45.10;;;;;;5111880;28;20028;-44
2020/12/30 05:27:32;;;;;;;1.73;0.50;;;20.90;45.10;;;;;;5110968;28;20028;-50
2020/12/30 05:29:58;;;;;;;0.65;0.40;;;20.90;45.10;;;;;;5111666;28;20042;-57
2020/12/30 05:32:25;;;;;;;0.70;0.50;;;20.90;45.00;;;;;;5111197;28;20024;-57
2020/12/30 05:34:53;;;;;;;0.75;0.57;;;20.90;45.00;;;;;;5110184;28;20061;-49
2020/12/30 05:37:30;;;;;;;0.77;0.30;;;20.90;45.00;;;;;;5110959;28;20487;-58
2020/12/30 05:39:55;;;;;;;0.88;0.38;;;20.90;45.00;;;;;;5111470;28;20384;-49
2020/12/30 05:42:21;;;;;;;0.65;0.40;;;20.90;45.00;;;;;;5109574;28;20028;-50
2020/12/30 05:44:48;;;;;;;1.10;0.60;;;20.90;45.00;;;;;;5111077;28;20464;-57
2020/12/30 05:47:21;;;;;;;0.57;0.40;;;20.90;45.00;;;;;;5111748;28;20112;-50
2020/12/30 05:49:49;;;;;;;1.80;0.45;;;20.90;45.00;;;;;;5111720;28;20035;-58
2020/12/30 05:52:26;;;;;;;0.68;0.50;;;20.90;45.00;;;;;;5111715;28;20027;-49
2020/12/30 05:54:53;;;;;;;0.57;0.40;;;20.90;45.00;;;;;;5111289;28;20472;-46
2020/12/30 05:57:22;;;;;;;1.05;0.40;;;20.90;44.90;;;;;;5111065;28;20383;-58
2020/12/30 05:59:51;;;;;;;0.60;0.30;;;20.90;44.90;;;;;;5110877;28;20050;-47
2020/12/30 06:02:25;;;;;;;1.00;0.60;;;20.90;45.00;;;;;;5108995;28;20058;-58
2020/12/30 06:04:52;;;;;;;1.17;0.45;;;20.90;44.90;;;;;;5109000;28;20062;-56
2020/12/30 06:07:19;;;;;;;1.25;0.60;;;20.90;44.90;;;;;;5110581;28;20483;-61
2020/12/30 06:09:54;;;;;;;1.02;0.60;;;20.90;44.90;;;;;;5110803;28;20469;-52
2020/12/30 06:12:25;;;;;;;0.55;0.45;;;20.90;45.50;;;;;;5108813;28;20028;-62
2020/12/30 06:14:51;;;;;;;0.50;0.50;;;20.90;45.00;;;;;;5110782;28;20080;-48
2020/12/30 06:17:27;;;;;;;0.88;0.40;;;20.90;45.10;;;;;;5110631;28;20416;-48
2020/12/30 06:19:54;;;;;;;0.85;0.40;;;20.90;45.30;;;;;;5110935;28;20044;-52
2020/12/30 06:22:21;;;;;;;2.03;0.70;;;21.00;45.50;;;;;;5114014;27;20039;-57
2020/12/30 06:24:52;;;;;;;1.42;0.70;;;20.90;44.30;;;;;;5114747;27;20049;-51
2020/12/30 06:27:20;;;;;;;2.75;0.80;;;20.70;37.50;;;;;;5115533;27;20051;-57
2020/12/30 06:29:46;;;;;;;1.40;0.73;;;20.50;34.90;;;;;;5112966;28;20036;-52
2020/12/30 06:32:27;;;;;;;2.67;0.90;;;20.30;34.00;;;;;;5112112;28;20112;-55
2020/12/30 06:34:52;;;;;;;3.00;0.93;;;20.10;33.40;;;;;;5111393;28;20365;-45
2020/12/30 06:37:32;;;;;;;3.22;0.77;;;20.00;33.40;;;;;;5113362;28;20023;-60
2020/12/30 06:40:21;;;;;;;1.80;1.20;;;19.90;33.20;;;;;;5112079;28;20031;-51
2020/12/30 06:42:55;;;;;;;1.85;1.00;;;19.80;32.90;;;;;;5112508;28;20024;-45
2020/12/30 06:45:42;;;;;;;3.42;1.20;;;19.70;32.90;;;;;;5112568;28;20100;-60
2020/12/30 06:48:09;;;;;;;2.08;0.95;;;19.60;32.70;;;;;;5110334;28;20537;-53
2020/12/30 06:50:35;;;;;;;2.80;1.15;;;19.60;32.80;;;;;;5112196;28;20073;-45
2020/12/30 06:53:26;;;;;;;2.28;1.00;;;19.70;33.40;;;;;;5112669;28;20071;-56
2020/12/30 06:55:56;;;;;;;2.80;0.70;;;19.80;35.20;;;;;;5110974;28;20118;-47
2020/12/30 06:58:47;;;;;;;2.75;0.98;;;19.90;36.40;;;;;;5112420;28;20024;-59
2020/12/30 07:01:20;;;;;;;4.67;1.00;;;20.10;37.00;;;;;;5110492;28;20492;-53
2020/12/30 07:03:48;;;;;;;1.73;0.70;;;20.20;37.50;;;;;;5112223;28;20085;-52
2020/12/30 07:06:30;;;;;;;1.45;0.70;;;20.30;37.60;;;;;;5112424;28;20028;-49
2020/12/30 07:08:58;;;;;;;1.70;0.80;;;20.40;37.80;;;;;;5113948;27;20039;-50
2020/12/30 07:11:40;;;;;;;1.55;0.73;;;20.40;39.20;;;;;;5110400;27;20031;-53
2020/12/30 07:14:07;;;;;;;;;;;20.50;39.20;;;;;;5112485;28;20023;-43
2020/12/30 07:16:33;;;;;;;2.03;0.95;;;20.60;39.20;;;;;;5111335;28;19943;-50
2020/12/30 07:18:59;;;;;;;1.33;0.70;;;20.60;39.30;;;;;;5111181;28;20028;-46
2020/12/30 07:21:25;;;;;;;3.03;0.80;;;20.70;39.50;;;;;;5112049;27;20092;-52
2020/12/30 07:23:55;;;;;;;1.25;0.80;;;20.70;39.70;;;;;;5112586;28;20028;-42
2020/12/30 07:26:21;;;;;;;1.60;0.60;;;20.70;39.90;;;;;;5112218;28;20440;-57
2020/12/30 07:28:48;;;;;;;1.40;0.73;;;20.80;40.10;;;;;;5110556;28;20122;-49
2020/12/30 07:31:14;;;;;;;2.53;0.70;;;20.80;40.30;;;;;;5112135;28;20036;-51
2020/12/30 07:33:40;;;;;;;1.17;0.80;;;20.80;40.40;;;;;;5110616;28;20073;-51
2020/12/30 07:36:08;;;;;;;3.53;1.10;;;20.80;40.50;;;;;;5109562;28;20050;-54
2020/12/30 07:38:34;;;;;;;6.63;0.90;;;20.80;40.60;;;;;;5112068;27;20027;-57
2020/12/30 07:41:10;;;;;;;1.65;0.77;;;20.90;40.80;;;;;;5112319;28;20084;-53
2020/12/30 07:43:49;;;;;;;6.10;0.98;;;20.90;40.90;;;;;;5109504;28;20089;-52
2020/12/30 07:46:19;;;;;;;1.48;0.70;;;21.00;41.50;;;;;;5112254;28;20038;-58
2020/12/30 07:48:45;;;;;;;2.45;0.82;;;21.00;40.70;;;;;;5109294;28;20032;-56
2020/12/30 07:51:11;;;;;;;3.85;1.30;;;21.10;40.70;;;;;;5112150;28;20026;-57
2020/12/30 07:53:37;;;;;;;2.58;0.80;;;21.20;40.60;;;;;;5109771;28;20036;-58
2020/12/30 07:56:03;;;;;;;5.15;1.02;;;21.30;40.60;;;;;;5111807;28;20445;-41
2020/12/30 07:58:29;;;;;;;5.38;0.80;;;21.30;40.60;;;;;;5110715;28;20073;-44
2020/12/30 08:00:54;;;;;;;3.53;0.88;;;21.40;40.70;;;;;;5111640;28;20051;-57
2020/12/30 08:03:21;;;;;;;3.85;0.70;;;21.40;40.50;;;;;;5110426;28;20385;-58
2020/12/30 08:05:49;;;;;;;6.53;1.85;;;21.50;40.50;;;;;;5109828;28;20042;-57
2020/12/30 08:08:16;;;;;;;7.10;2.40;;;21.50;40.70;;;;;;5111664;27;20461;-57
2020/12/30 08:10:43;;;;;;;5.65;2.28;;;21.50;40.80;;;;;;5110175;28;20032;-46
2020/12/30 08:13:10;;;;;;;7.30;2.00;;;21.50;40.80;;;;;;5111648;28;20020;-56
2020/12/30 08:15:35;;;;;;;4.47;1.85;;;21.40;41.30;;;;;;5110576;28;20035;-49
2020/12/30 08:18:01;;;;;;;4.57;1.63;;;21.40;41.00;;;;;;5111205;28;20023;-53
2020/12/30 08:20:28;;;;;;;2.88;1.92;;;21.40;40.80;;;;;;5110882;28;20034;-59
2020/12/30 08:22:57;;;;;;;4.78;1.60;;;21.50;40.90;;;;;;5110960;28;20063;-56
2020/12/30 08:25:23;;;;;;;4.70;1.77;;;21.50;40.90;;;;;;5109605;28;20028;-61
2020/12/30 08:27:49;;;;;;;5.93;1.40;;;21.40;40.70;;;;;;5111169;28;20034;-51
2020/12/30 08:30:15;;;;;;;3.22;1.85;;;21.40;40.60;;;;;;5111086;28;20150;-52
2020/12/30 08:32:50;;;;;;;7.53;1.48;;;21.40;40.50;;;;;;5109733;28;20106;-54
2020/12/30 08:35:18;;;;;;;3.75;1.30;;;21.40;40.50;;;;;;5110652;28;20028;-51
2020/12/30 08:37:47;;;;;;;3.45;1.58;;;21.40;40.40;;;;;;5109479;28;20031;-48
2020/12/30 08:40:30;;;;;;;2.78;1.60;;;21.40;40.50;;;;;;5110942;28;20023;-49
2020/12/30 08:43:19;;;;;;;4.05;1.42;;;21.40;40.40;;;;;;5109863;28;20062;-51
2020/12/30 08:45:47;;;;;;;5.35;1.75;;;21.40;40.30;;;;;;5107698;28;20035;-47
2020/12/30 08:48:15;;;;;;;1.95;0.98;;;21.50;40.10;;;;;;5110798;28;20034;-51
2020/12/30 08:50:41;;;;;;;3.28;1.25;;;21.40;40.00;;;;;;5108803;28;20173;-58
2020/12/30 08:53:07;;;;;;;2.75;1.23;;;21.50;40.00;;;;;;5110868;28;20062;-55
2020/12/30 08:55:33;;;;;;;2.25;1.17;;;21.50;39.80;;;;;;5110018;28;20921;-51
2020/12/30 08:57:59;;;;;;;2.67;0.98;;;21.50;39.70;;;;;;5110836;28;20027;-53
2020/12/30 09:00:26;;;;;;;5.28;1.30;;;21.40;39.90;;;;;;5108152;28;20397;-57
2020/12/30 09:02:54;;;;;;;2.08;1.25;;;21.50;39.80;;;;;;5107547;28;20052;-59
2020/12/30 09:05:26;;;;;;;4.30;1.42;;;21.50;39.60;;;;;;5104662;28;20132;-62
2020/12/30 09:07:53;;;;;;;4.97;1.75;;;21.50;39.50;;;;;;5103925;28;20027;-59
2020/12/30 09:10:18;;;;;;;5.55;1.15;;;21.50;39.30;;;;;;5102291;27;20034;-61
2020/12/30 09:12:45;;;;;;;3.47;1.17;;;21.50;39.30;;;;;;5109926;28;20031;-58
2020/12/30 09:15:13;;;;;;;1.95;0.95;;;21.60;39.30;;;;;;5109068;28;20337;-43
2020/12/30 09:17:39;;;;;;;1.67;1.10;;;21.60;39.30;;;;;;5110695;28;20027;-43
2020/12/30 09:20:15;;;;;;;4.40;1.30;;;21.60;39.20;;;;;;5111624;28;20024;-47
2020/12/30 09:22:42;;;;;;;3.13;1.00;;;21.50;39.40;;;;;;5113595;28;20068;-38
2020/12/30 09:25:23;;;;;;;4.93;1.02;;;21.60;39.30;;;;;;5107672;28;20069;-41
2020/12/30 09:27:49;;;;;;;2.28;1.30;;;21.50;39.30;;;;;;5110973;28;20027;-42
2020/12/30 09:30:23;;;;;;;1.50;0.75;;;21.50;39.30;;;;;;5111442;28;20520;-40
2020/12/30 09:32:49;;;;;;;1.73;0.88;;;21.50;39.30;;;;;;5109264;28;20485;-42
2020/12/30 09:35:18;;;;;;;3.45;0.88;;;21.40;39.10;;;;;;5108101;28;20094;-43
2020/12/30 09:37:57;;;;;;;2.28;0.90;;;21.40;39.20;;;;;;5110559;28;20028;-43
2020/12/30 09:40:24;;;;;;;2.08;0.82;;;21.40;39.00;;;;;;5110500;28;20023;-59
2020/12/30 09:42:51;;;;;;;8.30;1.77;;;21.40;39.00;;;;;;5111022;28;20030;-44
2020/12/30 09:45:20;;;;;;;6.50;1.10;;;21.40;39.20;;;;;;5109490;28;20489;-43
2020/12/30 09:47:47;;;;;;;2.33;1.00;;;21.40;39.50;;;;;;5121781;27;20024;-43
2020/12/30 09:50:17;;;;;;;4.13;0.90;;;21.40;40.00;;;;;;5110470;28;20431;-44
2020/12/30 09:52:46;;;;;;;6.15;0.88;;;21.50;40.40;;;;;;5110034;28;20046;-44
2020/12/30 09:55:13;;;;;;;2.58;1.20;;;21.40;40.70;;;;;;5115308;28;20031;-44
2020/12/30 09:57:41;;;;;;;5.70;0.80;;;21.40;40.50;;;;;;5110354;27;20023;-45
2020/12/30 10:00:09;;;;;;;1.83;0.82;;;21.40;40.60;;;;;;5114263;28;20032;-47
2020/12/30 10:02:36;;;;;;;13.23;1.30;;;21.40;40.80;;;;;;5113510;27;20118;-44
2020/12/30 10:05:02;;;;;;;3.42;1.08;;;21.40;40.60;;;;;;5114143;28;20027;-45
2020/12/30 10:07:28;;;;;;;4.78;1.15;;;21.50;40.60;;;;;;5113375;28;20072;-45
2020/12/30 10:09:55;;;;;;;4.68;0.77;;;21.50;40.60;;;;;;5114797;28;20079;-41
2020/12/30 10:12:22;;;;;;;4.25;1.13;;;21.40;40.60;;;;;;5114728;28;20024;-56
2020/12/30 10:14:48;;;;;;;4.32;1.05;;;21.50;40.60;;;;;;5113616;27;20028;-57
2020/12/30 10:17:14;;;;;;;6.40;0.90;;;21.50;40.90;;;;;;5111702;27;20377;-42
2020/12/30 10:19:39;;;;;;;8.55;1.42;;;21.40;41.10;;;;;;5113619;28;20122;-43
2020/12/30 10:22:09;;;;;;;8.68;1.42;;;21.40;41.50;;;;;;5117396;27;20089;-48
2020/12/30 10:24:36;;;;;;;53.63;22.92;;;21.50;41.30;;;;;;5095739;28;20354;-45
2020/12/30 10:27:03;;;;;;;37.17;18.52;;;21.50;41.20;;;;;;5111945;28;20028;-50
2020/12/30 10:29:30;;;;;;;40.08;15.75;;;21.60;41.60;;;;;;5112671;28;20027;-47
2020/12/30 10:31:58;;;;;;;36.22;15.48;;;21.50;41.20;;;;;;5113600;28;20554;-47
2020/12/30 10:34:24;;;;;;;26.58;12.02;;;21.50;41.10;;;;;;5112735;27;20028;-57
2020/12/30 10:36:50;;;;;;;29.13;11.65;;;21.50;41.40;;;;;;5113077;27;20028;-44
2020/12/30 10:39:17;;;;;;;31.58;10.95;;;21.50;41.50;;;;;;5114268;28;20139;-51
2020/12/30 10:41:43;;;;;;;24.02;10.15;;;21.60;41.80;;;;;;5111890;27;20067;-47
2020/12/30 10:44:09;;;;;;;23.52;9.73;;;21.50;41.30;;;;;;5113877;28;20081;-46
2020/12/30 10:46:36;;;;;;;24.30;9.77;;;21.50;41.60;;;;;;5110064;27;20028;-44
2020/12/30 10:49:02;;;;;;;25.25;9.30;;;21.50;41.70;;;;;;5110834;27;20584;-53
2020/12/30 10:51:28;;;;;;;23.27;7.78;;;21.50;40.80;;;;;;5111494;28;20039;-57
2020/12/30 10:53:55;;;;;;;19.90;8.23;;;21.50;40.90;;;;;;5111928;28;20072;-45
2020/12/30 10:56:21;;;;;;;21.00;7.60;;;21.40;41.10;;;;;;5114244;28;20015;-47
2020/12/30 10:58:47;;;;;;;6.72;3.28;;;21.40;38.50;;;;;;5112156;28;20127;-45
2020/12/30 11:01:14;;;;;;;6.05;2.70;;;21.10;33.50;;;;;;5113849;28;20081;-46
2020/12/30 11:03:40;;;;;;;13.57;4.80;;;20.80;35.40;;;;;;5113222;28;20573;-44
2020/12/30 11:06:08;;;;;;;9.60;3.60;;;20.80;37.90;;;;;;5113236;28;20024;-45
2020/12/30 11:08:34;;;;;;;11.02;4.05;;;20.90;38.10;;;;;;5112643;28;20039;-47
2020/12/30 11:11:01;;;;;;;16.60;4.22;;;21.00;38.80;;;;;;5112996;28;20073;-46
2020/12/30 11:13:27;;;;;;;14.75;4.55;;;21.10;38.70;;;;;;5111717;28;20023;-43
2020/12/30 11:15:54;;;;;;;11.43;3.80;;;21.20;39.10;;;;;;5111710;27;20480;-50
2020/12/30 11:18:20;;;;;;;9.90;3.10;;;21.20;39.10;;;;;;5113083;28;20024;-49
2020/12/30 11:20:46;;;;;;;8.00;3.17;;;21.20;39.20;;;;;;5117030;27;20167;-53
2020/12/30 11:23:12;;;;;;;11.18;3.30;;;21.20;39.30;;;;;;5112970;27;20035;-40
2020/12/30 11:25:41;;;;;;;13.98;3.15;;;21.20;39.40;;;;;;5112839;28;20035;-48
2020/12/30 11:28:06;;;;;;;10.02;3.00;;;21.20;39.50;;;;;;5112131;28;20032;-46
2020/12/30 11:30:32;;;;;;;15.35;3.53;;;21.20;39.70;;;;;;5112289;28;20039;-60
2020/12/30 11:32:58;;;;;;;10.88;2.85;;;21.20;39.70;;;;;;5112730;28;20118;-47
2020/12/30 11:35:25;;;;;;;11.00;3.45;;;21.20;39.70;;;;;;5113012;28;20023;-58
2020/12/30 11:37:51;;;;;;;8.50;2.30;;;21.30;40.10;;;;;;5116451;27;20050;-48
2020/12/30 11:40:16;;;;;;;11.63;3.28;;;21.30;40.70;;;;;;5113242;28;20031;-49
2020/12/30 11:42:42;;;;;;;14.02;2.88;;;21.30;41.00;;;;;;5111943;28;20260;-44
2020/12/30 11:45:08;;;;;;;21.35;5.22;;;21.10;40.20;;;;;;5111535;28;20499;-54
2020/12/30 11:47:33;;;;;;;21.90;4.60;;;21.00;40.40;;;;;;5112283;28;20376;-49
2020/12/30 11:49:59;;;;;;;57.53;24.73;;;20.90;40.10;;;;;;5112432;28;20353;-50
2020/12/30 11:52:25;;;;;;;47.53;21.05;;;20.80;40.10;;;;;;5112256;28;20511;-58
2020/12/30 11:54:50;;;;;;;42.53;18.55;;;20.70;40.10;;;;;;5112394;28;20064;-48
2020/12/30 11:57:16;;;;;;;41.28;17.08;;;20.80;40.30;;;;;;5112631;28;20095;-48
2020/12/30 11:59:42;;;;;;;33.65;16.55;;;20.90;40.60;;;;;;5111491;28;20034;-49
2020/12/30 12:02:07;;;;;;;29.52;15.52;;;20.90;40.70;;;;;;5112172;28;20141;-52
2020/12/30 12:04:33;;;;;;;30.23;12.85;;;20.80;41.20;;;;;;5111157;28;20076;-68
2020/12/30 12:07:00;;;;;;;27.77;13.52;;;20.90;41.00;;;;;;5111819;28;20120;-46
2020/12/30 12:09:27;;;;;;;26.00;12.70;;;21.00;41.30;;;;;;5111538;28;20057;-62
2020/12/30 12:11:53;;;;;;;31.45;11.23;;;21.00;41.60;;;;;;5112586;28;20024;-47
2020/12/30 12:14:19;;;;;;;27.15;11.35;;;21.00;42.30;;;;;;5112484;28;20114;-49
2020/12/30 12:16:55;;;;;;;27.40;11.77;;;21.00;42.90;;;;;;5110980;27;20027;-49
2020/12/30 12:19:21;;;;;;;29.08;11.10;;;21.00;43.40;;;;;;5113376;27;20023;-51
2020/12/30 12:21:47;;;;;;;15.95;9.40;;;21.10;43.60;;;;;;5110770;28;20102;-47
2020/12/30 12:24:13;;;;;;;25.05;10.48;;;21.10;43.60;;;;;;5112664;28;20562;-48
2020/12/30 12:26:40;;;;;;;21.90;9.45;;;21.10;44.40;;;;;;5111052;28;20036;-43
2020/12/30 12:29:33;;;;;;;21.13;8.73;;;21.00;44.20;;;;;;5104178;27;20027;-49
2020/12/30 12:32:08;;;;;;;16.08;7.45;;;21.00;43.90;;;;;;5111359;28;20106;-50
2020/12/30 12:34:36;;;;;;;18.77;7.90;;;21.00;44.40;;;;;;5110675;28;20482;-44
2020/12/30 12:37:03;;;;;;;13.77;6.85;;;21.00;44.30;;;;;;5111788;27;20036;-47
2020/12/30 12:39:29;;;;;;;14.27;7.28;;;21.00;43.80;;;;;;5110951;27;20046;-61
2020/12/30 12:41:56;;;;;;;14.55;7.35;;;21.10;43.70;;;;;;5108094;28;20076;-48
2020/12/30 12:44:23;;;;;;;17.98;7.28;;;21.00;43.60;;;;;;5111577;28;20041;-51
2020/12/30 12:46:49;;;;;;;13.63;6.35;;;21.10;43.80;;;;;;5110237;28;20059;-49
2020/12/30 12:49:16;;;;;;;13.65;6.10;;;21.00;43.50;;;;;;5111269;28;20027;-47